createdAt,value
2023-01-02T07:30:40.478Z,84.10
2023-01-02T07:41:52.102Z,84.00
2023-01-02T08:21:06.753Z,83.90
2023-01-02T08:25:32.837Z,83.90
2023-01-02T08:29:41.027Z,83.90
2023-01-02T08:33:49.623Z,84.00
2023-01-02T08:37:57.482Z,84.10
2023-01-02T08:42:42.330Z,84.10
2023-01-02T08:48:20.282Z,84.10
2023-01-02T08:57:56.651Z,84.10
2023-01-02T09:02:04.918Z,84.10
2023-01-02T09:24:04.690Z,83.90
2023-01-02T09:28:38.168Z,83.90
2023-01-02T09:32:53.172Z,83.80
2023-01-02T09:37:10.185Z,83.90
2023-01-02T09:41:53.299Z,84.00
2023-01-02T09:46:27.667Z,83.90
2023-01-02T10:02:41.768Z,83.70
2023-01-02T10:12:20.479Z,83.70
2023-01-02T10:33:28.451Z,83.70
2023-01-02T10:37:44.172Z,83.70
2023-01-02T10:55:22.170Z,83.60
2023-01-02T11:42:21.616Z,83.60
2023-01-02T12:04:05.147Z,83.40
2023-01-02T12:09:00.555Z,83.40
2023-01-02T12:20:04.894Z,83.10
2023-01-02T12:24:45.220Z,83.10
2023-01-02T12:41:01.381Z,82.90
2023-01-02T12:57:22.760Z,82.60
2023-01-02T13:08:23.739Z,82.40
2023-01-02T13:13:30.722Z,82.20
2023-01-02T13:19:00.736Z,82.10
2023-01-02T13:24:30.307Z,81.80
2023-01-02T13:29:27.260Z,81.90
2023-01-02T13:45:04.133Z,81.80
2023-01-02T14:15:25.355Z,82.20
2023-01-02T14:33:40.432Z,81.90
2023-01-02T14:38:18.484Z,81.80
2023-01-02T14:43:09.483Z,81.80
2023-01-02T14:47:57.780Z,81.70
2023-01-02T14:52:26.982Z,81.50
2023-01-02T14:56:44.895Z,81.70
2023-01-02T15:00:59.081Z,81.60
2023-01-02T15:05:35.048Z,81.70
2023-01-02T15:10:20.730Z,81.60
2023-01-02T15:14:34.630Z,81.60
2023-01-02T15:18:40.647Z,81.70
2023-01-02T15:23:04.429Z,81.70
2023-01-02T15:27:40.257Z,81.70
2023-01-02T15:36:54.944Z,81.60
2023-01-02T15:41:07.291Z,81.70
2023-01-02T15:45:21.744Z,81.90
2023-01-02T15:49:33.020Z,81.90
2023-01-02T15:54:06.227Z,81.90
2023-01-02T15:58:22.100Z,81.90
2023-01-02T16:02:36.741Z,81.90
2023-01-02T16:06:42.978Z,81.80
2023-01-02T16:10:51.500Z,81.80
2023-01-02T16:15:19.229Z,81.80
2023-01-02T16:19:59.376Z,81.90
2023-01-02T16:24:08.887Z,81.80
2023-01-02T16:28:35.083Z,81.90
2023-01-02T16:33:10.012Z,81.90
2023-01-02T16:37:39.408Z,81.90
